»·PEaware :: N7VG KCRQ-KEMT

N7VG :: KCRQ-KEMT

FLIGHT INFORMATION

Flight Status: Arrived
Operator: Privately registered:
United States
More flights under this callsign
Pilot: John C. (9438)
Aircraft: MOONEY M-20 201 202 205 220 ATS MSE
(M20P)
More flights by this aircraft type
Origin: KCRQ McClellan-Palomar
United States
Destination: KEMT El Monte
United States
More flights between these airports :: More routes between these airports
Route: OCN V23 DANAH V363 POM
File this flight plan on PilotEdge
Remarks: TEC route SANP23
Altitude:
(Current/Filed)
6,000ft
Speed:
(Current/Filed)
140kts
Departed: 09-Jul-19 07:30 AM
Arrived: 09-Jul-19 08:09 AM
Distance/Time
Traveled:
66nm/0:39
Distance/Time
To Go:
Arrived

Flight Plot

Page will automatically refresh every two minutes.


Map Options




Map Legend


Flown Route
Filed Route
Departure Airport
Arrival Airport
Navaid (VOR, NDB)
Fix

Horizontal Profiles

Position Reports

Time Latitude Longitude Heading Altitude Ground
Speed
09-Jul-19 07:08 33.127320 -117.274601 256 333ft 0kts
09-Jul-19 07:09 33.127320 -117.274601 256 333ft 0kts
09-Jul-19 07:10 33.127320 -117.274601 256 333ft 0kts
09-Jul-19 07:11 33.127320 -117.274601 256 333ft 0kts
09-Jul-19 07:12 33.127320 -117.274601 256 333ft 0kts
09-Jul-19 07:13 33.127320 -117.274601 256 333ft 0kts
09-Jul-19 07:14 33.127320 -117.274601 256 333ft 0kts
09-Jul-19 07:15 33.127320 -117.274601 256 333ft 0kts
09-Jul-19 07:16 33.127320 -117.274601 256 333ft 0kts
09-Jul-19 07:17 33.127320 -117.274601 256 333ft 0kts
09-Jul-19 07:18 33.127320 -117.274601 256 333ft 0kts
09-Jul-19 07:19 33.127320 -117.274601 256 333ft 0kts
09-Jul-19 07:20 33.127320 -117.274601 256 333ft 0kts
09-Jul-19 07:21 33.127320 -117.274601 256 333ft 0kts
09-Jul-19 07:22 33.127320 -117.274601 256 333ft 0kts
09-Jul-19 07:23 33.127823 -117.275077 350 333ft 0kts
09-Jul-19 07:24 33.128253 -117.275016 50 333ft 7kts
09-Jul-19 07:25 33.128609 -117.272863 55 333ft 0kts
09-Jul-19 07:26 33.128609 -117.272863 55 333ft 0kts
09-Jul-19 07:27 33.128609 -117.272863 55 333ft 0kts
09-Jul-19 07:28 33.128641 -117.272807 54 333ft 4kts
09-Jul-19 07:30 33.126336 -117.289188 254 532ft 115kts
09-Jul-19 07:31 33.119380 -117.333420 261 1643ft 141kts
09-Jul-19 07:32 33.113210 -117.379401 261 2912ft 140kts
09-Jul-19 07:33 33.106317 -117.432297 262 3000ft 179kts
09-Jul-19 07:34 33.100655 -117.493236 289 2998ft 186kts
09-Jul-19 07:35 33.136496 -117.507478 35 3851ft 159kts
09-Jul-19 07:36 33.172998 -117.476041 35 4416ft 161kts
09-Jul-19 07:37 33.209436 -117.444640 35 5009ft 158kts
09-Jul-19 07:38 33.247767 -117.421668 338 5533ft 158kts
09-Jul-19 07:39 33.279533 -117.458846 314 5988ft 162kts
09-Jul-19 07:40 33.309640 -117.503690 316 6000ft 177kts
09-Jul-19 07:41 33.349276 -117.541309 323 5999ft 183kts
09-Jul-19 07:42 33.386381 -117.584038 314 5999ft 184kts
09-Jul-19 07:43 33.422124 -117.628996 314 5999ft 184kts
09-Jul-19 07:44 33.458309 -117.673666 316 6001ft 184kts
09-Jul-19 07:45 33.503931 -117.697542 351 6006ft 184kts
09-Jul-19 07:46 33.554396 -117.708082 349 6012ft 184kts
09-Jul-19 07:47 33.605439 -117.718814 351 6018ft 184kts
09-Jul-19 07:48 33.656811 -117.727690 351 6018ft 185kts
09-Jul-19 07:48 33.697815 -117.743130 338 6018ft 184kts
09-Jul-19 07:50 33.754549 -117.769068 339 6018ft 185kts
09-Jul-19 07:50 33.796223 -117.779103 358 6018ft 185kts
09-Jul-19 07:51 33.848175 -117.781944 357 6018ft 185kts
09-Jul-19 07:53 33.909935 -117.783441 359 5598ft 201kts
09-Jul-19 07:53 33.957656 -117.784484 359 5029ft 204kts
09-Jul-19 07:54 34.011245 -117.785817 358 5017ft 179kts
09-Jul-19 07:55 34.059842 -117.787437 349 5013ft 169kts
09-Jul-19 07:56 34.076245 -117.834638 269 5018ft 166kts
09-Jul-19 07:57 34.076042 -117.890656 269 5016ft 166kts
09-Jul-19 07:58 34.075848 -117.946801 270 5014ft 166kts
09-Jul-19 07:59 34.082695 -118.000928 292 4857ft 174kts
09-Jul-19 08:00 34.081899 -118.051712 199 4556ft 176kts
09-Jul-19 08:01 34.044359 -118.023391 115 4344ft 165kts
09-Jul-19 08:02 34.017674 -117.977056 144 3855ft 170kts
09-Jul-19 08:03 33.998561 -118.002227 345 2336ft 194kts
09-Jul-19 08:04 34.029791 -117.969526 19 1179ft 122kts
09-Jul-19 08:05 34.041383 -117.997045 261 685ft 107kts
09-Jul-19 08:06 34.032455 -118.029476 240 582ft 112kts
09-Jul-19 08:07 34.014150 -118.052535 224 220ft 58kts
09-Jul-19 08:08 34.011418 -118.054614 43 219ft 7kts
09-Jul-19 08:09 34.013498 -118.052222 43 219ft 12kts
09-Jul-19 08:10 34.013379 -118.051102 287 219ft 0kts
09-Jul-19 08:11 34.013423 -118.051172 319 219ft 0kts
09-Jul-19 08:12 34.013423 -118.051172 319 219ft 0kts
09-Jul-19 08:13 34.013423 -118.051172 319 219ft 0kts
09-Jul-19 08:14 34.013423 -118.051172 319 219ft 0kts
09-Jul-19 08:15 34.013423 -118.051172 319 219ft 0kts
09-Jul-19 08:16 34.013423 -118.051172 319 219ft 0kts
09-Jul-19 08:17 34.013423 -118.051172 319 219ft 0kts
09-Jul-19 08:18 34.013423 -118.051172 319 219ft 0kts
09-Jul-19 08:19 34.013423 -118.051172 319 219ft 0kts
09-Jul-19 08:20 34.013423 -118.051172 319 219ft 0kts
09-Jul-19 08:21 34.013423 -118.051172 319 219ft 0kts
09-Jul-19 08:22 34.013423 -118.051172 319 219ft 0kts

Navigation Log

Ident Type
Flight plan parsing failed, navigation log unavailable